createdAt,value
2022-09-10T00:00:08.314Z,5.57
2022-09-10T00:02:33.933Z,4.90
2022-09-10T00:05:00.614Z,6.57
2022-09-10T00:07:24.162Z,4.90
2022-09-10T00:09:49.078Z,6.85
2022-09-10T00:12:12.794Z,5.57
2022-09-10T00:14:36.322Z,5.63
2022-09-10T00:16:59.842Z,6.30
2022-09-10T00:19:23.427Z,3.65
2022-09-10T00:21:47.099Z,5.70
2022-09-10T00:24:10.654Z,5.00
2022-09-10T00:26:39.693Z,5.43
2022-09-10T00:29:03.712Z,4.10
2022-09-10T00:31:29.525Z,5.00
2022-09-10T00:33:54.877Z,5.22
2022-09-10T00:36:21.722Z,7.88
2022-09-10T00:38:45.355Z,5.25
2022-09-10T00:41:09.310Z,5.50
2022-09-10T00:46:41.275Z,7.22
2022-09-10T00:49:11.069Z,5.63
2022-09-10T00:51:38.315Z,5.57
2022-09-10T00:54:03.475Z,8.65
2022-09-10T00:56:28.330Z,4.82
2022-09-10T00:58:52.501Z,4.65
2022-09-10T01:01:16.928Z,10.25
2022-09-10T01:03:43.993Z,7.93
2022-09-10T01:06:08.463Z,6.93
2022-09-10T01:08:32.057Z,5.32
2022-09-10T01:11:11.302Z,4.13
2022-09-10T01:13:51.467Z,3.95
2022-09-10T01:16:24.752Z,5.07
2022-09-10T01:18:58.370Z,6.80
2022-09-10T01:21:26.879Z,9.25
2022-09-10T01:24:45.471Z,11.55
2022-09-10T01:27:35.883Z,5.15
2022-09-10T01:30:07.258Z,5.78
2022-09-10T01:32:40.923Z,8.23
2022-09-10T01:35:15.617Z,5.63
2022-09-10T01:37:43.882Z,8.95
2022-09-10T01:40:09.558Z,6.20
2022-09-10T01:42:35.035Z,6.88
2022-09-10T01:44:59.170Z,8.45
2022-09-10T01:47:42.215Z,10.73
2022-09-10T01:50:24.164Z,8.63
2022-09-10T01:53:06.162Z,8.57
2022-09-10T01:55:38.354Z,5.80
2022-09-10T01:58:13.334Z,7.05
2022-09-10T02:00:50.735Z,4.95
2022-09-10T02:03:18.450Z,6.43
2022-09-10T02:05:48.765Z,8.00
2022-09-10T02:08:17.990Z,7.82
2022-09-10T02:10:52.314Z,6.28
2022-09-10T02:13:18.549Z,6.07
2022-09-10T02:16:02.934Z,10.07
2022-09-10T02:18:34.680Z,6.20
2022-09-10T02:20:59.735Z,4.53
2022-09-10T02:23:29.284Z,5.95
2022-09-10T02:25:54.194Z,5.75
2022-09-10T02:28:25.503Z,7.60
2022-09-10T02:30:49.182Z,6.68
2022-09-10T02:33:16.281Z,8.07
2022-09-10T02:35:40.076Z,7.47
2022-09-10T02:38:05.850Z,10.52
2022-09-10T02:40:31.519Z,4.97
2022-09-10T02:42:55.597Z,6.68
2022-09-10T02:45:23.382Z,5.13
2022-09-10T02:47:46.943Z,5.93
2022-09-10T02:50:12.619Z,6.85
2022-09-10T02:52:37.131Z,5.03
2022-09-10T02:55:01.187Z,6.10
2022-09-10T02:57:24.800Z,6.85
2022-09-10T02:59:48.403Z,8.05
2022-09-10T03:02:14.509Z,5.18
2022-09-10T03:04:38.290Z,7.70
2022-09-10T03:07:01.830Z,6.22
2022-09-10T03:09:29.011Z,10.93
2022-09-10T03:11:52.716Z,7.60
2022-09-10T03:14:20.299Z,6.28
2022-09-10T03:16:43.950Z,5.75
2022-09-10T03:19:09.223Z,8.00
2022-09-10T03:21:34.143Z,5.60
2022-09-10T03:23:57.766Z,5.97
2022-09-10T03:26:26.369Z,5.38
2022-09-10T03:28:51.186Z,4.93
2022-09-10T03:31:18.238Z,6.95
2022-09-10T03:33:46.192Z,9.88
2022-09-10T03:36:13.736Z,12.23
2022-09-10T03:38:39.104Z,8.75
2022-09-10T03:41:03.606Z,5.50
2022-09-10T03:43:27.288Z,7.55
2022-09-10T03:45:52.009Z,7.47
2022-09-10T03:48:15.996Z,8.10
2022-09-10T03:50:39.706Z,7.10
2022-09-10T03:53:04.998Z,7.10
2022-09-10T03:55:30.467Z,8.57
2022-09-10T03:57:54.156Z,9.60
2022-09-10T04:00:18.877Z,7.80
2022-09-10T04:02:46.517Z,4.88
2022-09-10T04:05:11.290Z,7.45
2022-09-10T04:07:36.707Z,6.28
2022-09-10T04:10:01.727Z,6.45
2022-09-10T04:12:27.038Z,8.15
2022-09-10T04:14:50.670Z,7.60
2022-09-10T04:17:14.369Z,8.75
2022-09-10T04:19:40.855Z,6.97
2022-09-10T04:22:04.528Z,5.40
2022-09-10T04:24:28.848Z,5.90
2022-09-10T04:26:54.118Z,7.18
2022-09-10T04:29:19.220Z,6.18
2022-09-10T04:31:43.288Z,5.85
2022-09-10T04:34:09.545Z,7.50
2022-09-10T04:36:33.271Z,7.03
2022-09-10T04:38:59.072Z,6.57
2022-09-10T04:41:23.085Z,9.13
2022-09-10T04:43:48.066Z,4.30
2022-09-10T04:46:12.270Z,9.35
2022-09-10T04:48:38.845Z,7.20
2022-09-10T04:51:16.128Z,11.48
2022-09-10T04:53:42.321Z,8.63
2022-09-10T04:56:06.492Z,7.60
2022-09-10T04:58:38.474Z,9.52
2022-09-10T05:01:04.231Z,10.80
2022-09-10T05:03:27.872Z,5.68
2022-09-10T05:05:51.856Z,5.45
2022-09-10T05:08:15.470Z,6.65
2022-09-10T05:10:46.326Z,6.97
2022-09-10T05:13:10.439Z,8.23
2022-09-10T05:15:34.543Z,5.90
2022-09-10T05:18:00.379Z,4.32
2022-09-10T05:20:24.331Z,7.47
2022-09-10T05:22:50.260Z,7.07
2022-09-10T05:25:14.154Z,6.10
2022-09-10T05:27:38.696Z,4.78
2022-09-10T05:30:05.124Z,8.82
2022-09-10T05:32:28.815Z,8.27
2022-09-10T05:34:53.719Z,6.35
2022-09-10T05:37:18.740Z,7.75
2022-09-10T05:39:42.929Z,6.28
2022-09-10T05:42:07.312Z,6.20
2022-09-10T05:44:32.025Z,8.35
2022-09-10T05:46:55.798Z,9.05
2022-09-10T05:49:19.324Z,7.68
2022-09-10T05:51:44.387Z,11.20
2022-09-10T05:54:08.295Z,10.00
2022-09-10T05:56:32.750Z,12.13
2022-09-10T05:58:56.322Z,13.13
2022-09-10T06:01:20.126Z,8.05
2022-09-10T06:03:44.475Z,9.05
2022-09-10T06:06:09.914Z,7.47
2022-09-10T06:08:40.021Z,5.95
2022-09-10T06:11:13.504Z,5.30
2022-09-10T06:13:42.550Z,4.82
2022-09-10T06:16:07.445Z,13.60
2022-09-10T06:18:32.082Z,6.85
2022-09-10T06:21:05.129Z,6.53
2022-09-10T06:23:28.746Z,5.93
2022-09-10T06:26:04.377Z,5.97
2022-09-10T06:28:29.650Z,8.85
2022-09-10T06:30:53.234Z,6.68
2022-09-10T06:33:17.183Z,6.88
2022-09-10T06:35:41.007Z,6.45
2022-09-10T06:38:04.583Z,6.65
2022-09-10T06:40:29.990Z,7.13
2022-09-10T06:42:55.354Z,5.35
2022-09-10T06:45:42.178Z,5.15
2022-09-10T06:48:48.470Z,7.50
2022-09-10T06:51:08.827Z,4.53
2022-09-10T06:53:34.467Z,3.13
2022-09-10T06:56:02.533Z,3.75
2022-09-10T06:58:35.243Z,4.00
2022-09-10T07:00:59.546Z,3.22
2022-09-10T07:03:24.135Z,6.00
2022-09-10T07:05:49.253Z,3.00
2022-09-10T07:08:14.707Z,2.78
2022-09-10T07:10:38.599Z,2.58
2022-09-10T07:13:02.578Z,4.50
2022-09-10T07:15:28.462Z,3.10
2022-09-10T07:17:52.127Z,3.83
2022-09-10T07:20:17.303Z,5.82
2022-09-10T07:22:43.792Z,4.43
2022-09-10T07:25:10.334Z,4.15
2022-09-10T07:27:48.542Z,3.97
2022-09-10T07:30:13.958Z,3.30
2022-09-10T07:32:38.909Z,4.18
2022-09-10T07:35:09.632Z,2.90
2022-09-10T07:37:33.705Z,2.72
2022-09-10T07:39:58.070Z,2.03
2022-09-10T07:42:22.326Z,4.78
2022-09-10T07:44:48.014Z,3.58
2022-09-10T07:47:11.566Z,2.63
2022-09-10T07:49:36.524Z,4.63
2022-09-10T07:52:01.242Z,3.97
2022-09-10T07:54:31.078Z,3.65
2022-09-10T07:56:55.096Z,4.35
2022-09-10T07:59:19.254Z,4.60
2022-09-10T08:01:53.919Z,4.38
2022-09-10T08:04:18.778Z,3.05
2022-09-10T08:06:44.094Z,2.75
2022-09-10T08:09:08.256Z,3.47
2022-09-10T08:11:35.740Z,6.45
2022-09-10T08:14:00.877Z,9.10
2022-09-10T08:16:26.942Z,2.78
2022-09-10T08:18:56.947Z,3.63
2022-09-10T08:21:22.050Z,3.08
2022-09-10T08:23:50.948Z,2.65
2022-09-10T08:26:15.943Z,4.80
2022-09-10T08:28:43.507Z,4.20
2022-09-10T08:31:10.361Z,5.75
2022-09-10T08:33:41.488Z,4.20
2022-09-10T08:36:07.191Z,3.05
2022-09-10T08:38:32.867Z,4.50
2022-09-10T08:41:00.452Z,5.55
2022-09-10T08:43:32.449Z,3.03
2022-09-10T08:45:57.435Z,7.43
2022-09-10T08:48:25.063Z,2.20
2022-09-10T08:50:56.149Z,3.92
2022-09-10T08:53:29.454Z,4.78
2022-09-10T08:56:02.970Z,3.15
2022-09-10T08:58:33.065Z,2.53
2022-09-10T09:01:00.426Z,3.30
2022-09-10T09:03:32.832Z,2.45
2022-09-10T09:06:00.800Z,2.28
2022-09-10T09:08:35.335Z,2.45
2022-09-10T09:11:14.839Z,2.45
2022-09-10T09:13:58.735Z,3.03
2022-09-10T09:16:54.539Z,2.10
2022-09-10T09:19:31.562Z,5.13
2022-09-10T09:21:57.419Z,2.30
2022-09-10T09:24:44.252Z,2.17
2022-09-10T09:27:16.850Z,5.28
2022-09-10T09:29:47.794Z,4.15
2022-09-10T09:32:17.293Z,3.55
2022-09-10T09:34:45.915Z,2.60
2022-09-10T09:37:18.916Z,3.60
2022-09-10T09:39:49.789Z,4.03
2022-09-10T09:42:23.016Z,2.05
2022-09-10T09:44:57.177Z,5.03
2022-09-10T09:47:23.166Z,3.47
2022-09-10T09:49:47.274Z,2.47
2022-09-10T09:52:20.930Z,2.78
2022-09-10T09:57:36.362Z,3.85
2022-09-10T10:00:33.277Z,2.75
2022-09-10T10:02:56.975Z,2.95
2022-09-10T10:05:25.935Z,2.60
2022-09-10T10:07:50.403Z,1.75
2022-09-10T10:10:25.466Z,2.25
2022-09-10T10:12:52.800Z,2.22
2022-09-10T10:15:38.143Z,4.07
2022-09-10T10:18:03.318Z,1.63
2022-09-10T10:20:41.460Z,2.25
2022-09-10T10:23:31.338Z,2.50
2022-09-10T10:25:54.967Z,2.50
2022-09-10T10:28:25.550Z,1.63
2022-09-10T10:30:54.522Z,2.17
2022-09-10T10:33:22.171Z,2.72
2022-09-10T10:35:50.346Z,1.92
2022-09-10T10:38:33.074Z,1.33
2022-09-10T10:41:41.771Z,2.88
2022-09-10T10:44:37.054Z,2.20
2022-09-10T10:47:21.016Z,1.48
2022-09-10T10:50:01.103Z,1.60
2022-09-10T10:52:33.895Z,3.03
2022-09-10T10:55:14.404Z,2.05
2022-09-10T10:57:59.852Z,1.60
2022-09-10T11:00:25.843Z,1.80
2022-09-10T11:02:54.744Z,2.00
2022-09-10T11:05:26.967Z,2.67
2022-09-10T11:07:50.878Z,2.47
2022-09-10T11:10:21.171Z,1.95
2022-09-10T11:12:51.561Z,1.88
2022-09-10T11:15:29.443Z,1.88
2022-09-10T11:17:59.047Z,1.77
2022-09-10T11:20:29.731Z,1.83
2022-09-10T11:22:59.076Z,1.20
2022-09-10T11:25:27.878Z,1.63
2022-09-10T11:27:57.099Z,1.55
2022-09-10T11:30:21.700Z,2.97
2022-09-10T11:32:54.397Z,4.60
2022-09-10T11:35:23.530Z,2.53
2022-09-10T11:37:57.652Z,2.55
2022-09-10T11:40:28.556Z,1.42
2022-09-10T11:42:58.861Z,0.93
2022-09-10T11:45:32.499Z,1.23
2022-09-10T11:48:06.651Z,1.08
2022-09-10T11:50:37.787Z,2.55
2022-09-10T11:53:02.296Z,1.23
2022-09-10T11:55:44.402Z,2.85
2022-09-10T11:58:18.191Z,1.55
2022-09-10T12:00:54.408Z,2.45
2022-09-10T12:03:53.445Z,1.50
2022-09-10T12:06:23.882Z,2.75
2022-09-10T12:09:01.798Z,2.70
2022-09-10T12:11:35.493Z,1.55
2022-09-10T12:13:59.515Z,1.52
2022-09-10T12:16:34.784Z,1.30
2022-09-10T12:19:01.459Z,1.67
2022-09-10T12:21:35.912Z,1.63
2022-09-10T12:24:02.492Z,1.27
2022-09-10T12:26:26.492Z,1.08
2022-09-10T12:29:06.767Z,2.22
2022-09-10T12:32:17.037Z,2.22
2022-09-10T12:34:42.395Z,1.73
2022-09-10T12:37:24.828Z,2.55
2022-09-10T12:39:48.576Z,1.83
2022-09-10T12:42:30.031Z,1.70
2022-09-10T12:44:53.991Z,2.05
2022-09-10T12:47:45.020Z,3.30
2022-09-10T12:50:37.603Z,2.08
2022-09-10T12:54:01.626Z,3.72
2022-09-10T12:57:08.241Z,2.33
2022-09-10T13:00:12.767Z,2.85
2022-09-10T13:02:47.227Z,0.60
2022-09-10T13:05:33.238Z,2.08
2022-09-10T13:08:08.094Z,1.38
2022-09-10T13:10:33.066Z,1.70
2022-09-10T13:13:01.722Z,1.27
2022-09-10T13:15:28.210Z,1.25
2022-09-10T13:18:24.779Z,2.17
2022-09-10T13:20:49.868Z,2.55
2022-09-10T13:23:27.766Z,3.40
2022-09-10T13:25:52.947Z,1.58
2022-09-10T13:29:01.349Z,1.25
2022-09-10T13:31:28.843Z,1.67
2022-09-10T13:34:33.523Z,1.15
2022-09-10T13:37:16.127Z,4.22
2022-09-10T13:40:19.242Z,1.50
2022-09-10T13:43:03.182Z,0.98
2022-09-10T13:45:29.990Z,2.20
2022-09-10T13:48:02.166Z,1.38
2022-09-10T13:50:31.156Z,5.10
2022-09-10T13:53:00.032Z,5.43
2022-09-10T13:55:27.530Z,2.10
2022-09-10T13:57:54.647Z,1.95
2022-09-10T14:00:24.677Z,5.15
2022-09-10T14:02:52.448Z,2.75
2022-09-10T14:05:34.700Z,3.13
2022-09-10T14:08:05.318Z,2.83
2022-09-10T14:10:29.934Z,2.08
2022-09-10T14:12:55.844Z,2.40
2022-09-10T14:15:23.650Z,2.55
2022-09-10T14:17:52.057Z,1.25
2022-09-10T14:20:24.947Z,3.72
2022-09-10T14:22:48.671Z,1.88
2022-09-10T14:25:31.577Z,1.75
2022-09-10T14:27:55.544Z,2.60
2022-09-10T14:30:31.059Z,1.98
2022-09-10T14:32:55.410Z,2.97
2022-09-10T14:35:42.995Z,2.72
2022-09-10T14:38:22.624Z,3.55
2022-09-10T14:40:49.710Z,3.53
2022-09-10T14:43:16.918Z,1.98
2022-09-10T14:45:42.558Z,1.10
2022-09-10T14:48:06.814Z,4.07
2022-09-10T14:50:34.319Z,3.35
2022-09-10T14:52:58.306Z,2.30
2022-09-10T14:55:23.471Z,1.55
2022-09-10T14:57:48.984Z,4.38
2022-09-10T15:00:16.693Z,1.92
2022-09-10T15:02:42.642Z,3.08
2022-09-10T15:05:08.275Z,3.92
2022-09-10T15:07:31.834Z,2.13
2022-09-10T15:09:55.383Z,2.20
2022-09-10T15:12:23.869Z,3.67
2022-09-10T15:14:48.872Z,2.28
2022-09-10T15:17:15.618Z,2.30
2022-09-10T15:19:39.174Z,2.22
2022-09-10T15:22:02.724Z,2.22
2022-09-10T15:24:28.605Z,2.08
2022-09-10T15:26:52.572Z,1.10
2022-09-10T15:29:17.966Z,4.97
2022-09-10T15:31:44.622Z,1.50
2022-09-10T15:34:10.570Z,2.13
2022-09-10T15:36:34.323Z,2.45
2022-09-10T15:38:59.622Z,3.28
2022-09-10T15:41:23.628Z,2.60
2022-09-10T15:43:47.719Z,1.42
2022-09-10T15:46:12.385Z,4.30
2022-09-10T15:48:38.174Z,1.95
2022-09-10T15:51:03.942Z,3.20
2022-09-10T15:53:28.140Z,3.85
2022-09-10T15:55:51.647Z,4.47
2022-09-10T15:58:15.469Z,2.97
2022-09-10T16:00:38.995Z,1.75
2022-09-10T16:03:02.622Z,5.90
2022-09-10T16:05:28.660Z,3.13
2022-09-10T16:07:52.838Z,1.60
2022-09-10T16:10:17.479Z,2.80
2022-09-10T16:12:41.524Z,4.50
2022-09-10T16:15:05.710Z,2.83
2022-09-10T16:17:29.421Z,3.38
2022-09-10T16:19:53.933Z,2.70
2022-09-10T16:22:20.811Z,1.92
2022-09-10T16:24:44.482Z,2.72
2022-09-10T16:27:08.075Z,2.47
2022-09-10T16:29:32.670Z,1.83
2022-09-10T16:31:57.267Z,2.08
2022-09-10T16:34:22.170Z,1.33
2022-09-10T16:36:48.724Z,2.03
2022-09-10T16:39:15.591Z,2.22
2022-09-10T16:41:40.286Z,4.30
2022-09-10T16:44:04.355Z,2.42
2022-09-10T16:46:29.036Z,2.67
2022-09-10T16:48:54.816Z,3.28
2022-09-10T16:51:20.755Z,1.88
2022-09-10T16:53:46.091Z,2.28
2022-09-10T16:56:13.839Z,1.30
2022-09-10T16:58:38.880Z,1.85
2022-09-10T17:01:03.097Z,3.13
2022-09-10T17:03:26.894Z,2.92
2022-09-10T17:05:50.887Z,2.72
2022-09-10T17:08:14.403Z,3.50
2022-09-10T17:10:37.958Z,2.55
2022-09-10T17:13:03.011Z,3.65
2022-09-10T17:15:26.608Z,2.83
2022-09-10T17:17:50.123Z,2.60
2022-09-10T17:20:14.494Z,3.28
2022-09-10T17:22:38.056Z,3.53
2022-09-10T17:25:01.624Z,3.13
2022-09-10T17:27:25.759Z,5.38
2022-09-10T17:29:50.870Z,4.22
2022-09-10T17:32:14.369Z,3.10
2022-09-10T17:34:38.016Z,3.15
2022-09-10T17:37:01.669Z,6.72
2022-09-10T17:39:28.263Z,4.07
2022-09-10T17:41:55.268Z,5.53
2022-09-10T17:44:18.967Z,3.55
2022-09-10T17:46:45.000Z,5.43
2022-09-10T17:49:08.600Z,3.70
2022-09-10T17:51:34.584Z,3.22
2022-09-10T17:53:58.908Z,4.05
2022-09-10T17:56:24.512Z,4.03
2022-09-10T17:58:48.798Z,4.50
2022-09-10T18:01:18.203Z,2.72
2022-09-10T18:03:46.760Z,3.08
2022-09-10T18:06:12.154Z,4.70
2022-09-10T18:08:36.385Z,3.63
2022-09-10T18:11:05.724Z,7.40
2022-09-10T18:13:29.891Z,3.60
2022-09-10T18:15:53.505Z,5.18
2022-09-10T18:18:17.132Z,5.50
2022-09-10T18:20:43.001Z,5.85
2022-09-10T18:23:07.167Z,5.07
2022-09-10T18:25:33.446Z,3.85
2022-09-10T18:27:57.408Z,3.50
2022-09-10T18:30:21.043Z,4.57
2022-09-10T18:32:44.634Z,6.00
2022-09-10T18:35:09.100Z,5.13
2022-09-10T18:37:34.304Z,5.28
2022-09-10T18:39:58.557Z,5.65
2022-09-10T18:42:22.202Z,7.53
2022-09-10T18:44:45.699Z,5.95
2022-09-10T18:47:22.664Z,5.38
2022-09-10T18:49:54.279Z,9.30
2022-09-10T18:52:17.927Z,5.78
2022-09-10T18:54:46.587Z,5.68
2022-09-10T18:57:10.346Z,6.32
2022-09-10T18:59:34.475Z,4.95
2022-09-10T19:01:58.030Z,7.07
2022-09-10T19:04:24.272Z,7.80
2022-09-10T19:06:49.720Z,9.10
2022-09-10T19:09:16.192Z,5.32
2022-09-10T19:11:43.767Z,7.32
2022-09-10T19:14:14.778Z,5.95
2022-09-10T19:16:38.340Z,6.43
2022-09-10T19:19:06.597Z,8.90
2022-09-10T19:21:32.323Z,6.35
2022-09-10T19:23:59.507Z,5.20
2022-09-10T19:26:24.354Z,7.18
2022-09-10T19:28:49.256Z,7.75
2022-09-10T19:31:15.916Z,6.35
2022-09-10T19:33:39.671Z,7.78
2022-09-10T19:36:05.055Z,9.70
2022-09-10T19:38:37.442Z,11.98
2022-09-10T19:41:06.931Z,14.57
2022-09-10T19:43:30.486Z,13.55
2022-09-10T19:45:57.915Z,12.45
2022-09-10T19:48:21.954Z,9.60
2022-09-10T19:50:45.881Z,8.45
2022-09-10T19:53:09.378Z,10.63
2022-09-10T19:55:34.836Z,10.77
2022-09-10T19:58:00.042Z,8.13
2022-09-10T20:00:45.474Z,9.27
2022-09-10T20:03:09.995Z,10.77
2022-09-10T20:05:35.648Z,11.93
2022-09-10T20:07:59.391Z,9.82
2022-09-10T20:10:22.946Z,10.07
2022-09-10T20:12:46.577Z,9.90
2022-09-10T20:15:10.975Z,9.43
2022-09-10T20:17:34.619Z,9.57
2022-09-10T20:19:59.494Z,9.82
2022-09-10T20:22:23.079Z,8.25
2022-09-10T20:24:46.592Z,8.32
2022-09-10T20:27:10.230Z,10.10
2022-09-10T20:29:33.878Z,12.15
2022-09-10T20:31:57.487Z,13.38
2022-09-10T20:34:23.261Z,11.52
2022-09-10T20:36:51.195Z,11.70
2022-09-10T20:39:17.063Z,9.15
2022-09-10T20:41:40.704Z,8.20
2022-09-10T20:44:04.497Z,10.60
2022-09-10T20:46:30.656Z,8.18
2022-09-10T20:48:55.036Z,6.07
2022-09-10T20:51:20.541Z,6.95
2022-09-10T20:53:46.050Z,7.88
2022-09-10T20:56:12.513Z,10.63
2022-09-10T20:58:38.243Z,8.75
2022-09-10T21:01:11.408Z,9.02
2022-09-10T21:03:35.883Z,8.77
2022-09-10T21:05:59.413Z,7.38
2022-09-10T21:08:23.407Z,10.32
2022-09-10T21:10:48.522Z,9.65
2022-09-10T21:13:12.203Z,14.23
2022-09-10T21:15:35.954Z,12.60
2022-09-10T21:17:59.823Z,10.27
2022-09-10T21:20:23.606Z,10.90
2022-09-10T21:22:47.242Z,8.88
2022-09-10T21:25:11.108Z,8.13
2022-09-10T21:27:36.052Z,10.48
2022-09-10T21:29:59.606Z,12.77
2022-09-10T21:32:23.619Z,6.70
2022-09-10T21:34:47.160Z,9.02
2022-09-10T21:37:11.107Z,9.90
2022-09-10T21:39:34.699Z,7.68
2022-09-10T21:41:59.813Z,9.68
2022-09-10T21:44:25.216Z,8.80
2022-09-10T21:46:49.944Z,11.45
2022-09-10T21:49:14.101Z,7.15
2022-09-10T21:51:38.268Z,8.60
2022-09-10T21:54:01.958Z,12.15
2022-09-10T21:56:29.569Z,12.48
2022-09-10T21:58:53.929Z,10.23
2022-09-10T22:01:21.928Z,12.32
2022-09-10T22:03:47.266Z,12.90
2022-09-10T22:06:13.993Z,10.15
2022-09-10T22:08:39.596Z,13.05
2022-09-10T22:11:07.667Z,9.43
2022-09-10T22:13:31.150Z,12.85
2022-09-10T22:15:54.743Z,15.68
2022-09-10T22:18:20.494Z,17.27
2022-09-10T22:20:44.098Z,9.15
2022-09-10T22:23:07.830Z,16.00
2022-09-10T22:25:33.206Z,12.25
2022-09-10T22:27:58.354Z,10.02
2022-09-10T22:30:22.254Z,11.50
2022-09-10T22:32:46.618Z,13.15
2022-09-10T22:35:11.739Z,11.90
2022-09-10T22:37:35.667Z,11.68
2022-09-10T22:40:00.423Z,11.75
2022-09-10T22:42:26.097Z,9.82
2022-09-10T22:44:49.663Z,12.40
2022-09-10T22:47:13.144Z,9.63
2022-09-10T22:49:37.280Z,9.60
2022-09-10T22:52:02.254Z,10.88
2022-09-10T22:54:25.858Z,14.27
2022-09-10T22:56:49.446Z,12.10
2022-09-10T22:59:14.708Z,11.18
2022-09-10T23:01:39.533Z,9.82
2022-09-10T23:04:06.213Z,10.95
2022-09-10T23:06:32.587Z,10.48
2022-09-10T23:09:03.531Z,12.18
2022-09-10T23:11:29.658Z,12.93
2022-09-10T23:13:56.768Z,12.32
2022-09-10T23:16:23.263Z,14.45
2022-09-10T23:18:50.622Z,9.60
2022-09-10T23:21:14.520Z,12.85
2022-09-10T23:23:38.115Z,12.77
2022-09-10T23:26:08.318Z,12.48
2022-09-10T23:28:31.862Z,10.27
2022-09-10T23:30:55.458Z,9.05
2022-09-10T23:33:19.004Z,14.45
2022-09-10T23:35:50.962Z,13.35
2022-09-10T23:38:14.562Z,9.55
2022-09-10T23:40:38.362Z,14.35
2022-09-10T23:43:03.294Z,10.65
2022-09-10T23:45:27.518Z,9.75
2022-09-10T23:47:51.284Z,9.30
2022-09-10T23:50:14.942Z,9.15
2022-09-10T23:52:38.893Z,11.63
2022-09-10T23:55:02.394Z,10.63
2022-09-10T23:57:26.084Z,10.15
2022-09-10T23:59:50.971Z,9.07
